createdAt,value
2023-05-05T00:05:07.512Z,7.20
2023-05-05T00:16:09.036Z,7.20
2023-05-05T00:27:10.138Z,7.10
2023-05-05T00:38:10.187Z,6.91
2023-05-05T00:49:09.996Z,6.81
2023-05-05T01:00:11.554Z,6.71
2023-05-05T01:11:09.525Z,6.61
2023-05-05T01:22:01.731Z,6.61
2023-05-05T01:33:02.217Z,6.52
2023-05-05T01:44:00.528Z,6.42
2023-05-05T01:55:00.889Z,6.32
2023-05-05T02:05:57.193Z,6.32
2023-05-05T02:16:58.608Z,6.22
2023-05-05T02:27:56.876Z,6.03
2023-05-05T02:38:55.206Z,5.93
2023-05-05T02:49:50.582Z,5.93
2023-05-05T03:00:53.125Z,5.93
2023-05-05T03:11:47.227Z,5.93
2023-05-05T03:22:46.176Z,5.73
2023-05-05T03:33:44.641Z,5.44
2023-05-05T03:44:45.974Z,5.44
2023-05-05T03:55:45.016Z,5.44
2023-05-05T04:06:23.563Z,5.44
2023-05-05T04:17:03.242Z,5.54
2023-05-05T04:28:01.208Z,5.93
2023-05-05T04:38:59.877Z,6.12
2023-05-05T04:49:54.695Z,6.42
2023-05-05T05:00:51.083Z,7.01
2023-05-05T05:11:47.185Z,7.40
2023-05-05T05:22:46.720Z,7.98
2023-05-05T05:33:46.547Z,9.74
2023-05-05T05:44:40.955Z,9.74
2023-05-05T05:55:41.354Z,10.43
2023-05-05T06:06:36.809Z,11.21
2023-05-05T06:17:37.003Z,12.09
2023-05-05T06:28:35.196Z,12.68
2023-05-05T06:39:36.174Z,13.07
2023-05-05T06:50:33.988Z,13.26
2023-05-05T07:01:24.101Z,13.66
2023-05-05T07:11:59.899Z,14.05
2023-05-05T07:22:41.638Z,14.24
2023-05-05T07:33:17.193Z,14.73
2023-05-05T07:44:17.862Z,15.32
2023-05-05T07:55:16.670Z,15.71
2023-05-05T08:06:17.340Z,16.30
2023-05-05T08:17:12.204Z,16.69
2023-05-05T08:28:02.591Z,16.88
2023-05-05T08:39:01.859Z,17.27
2023-05-05T08:50:01.496Z,17.67
2023-05-05T09:00:58.639Z,17.96
2023-05-05T09:11:58.955Z,18.45
2023-05-05T09:22:58.740Z,18.84
2023-05-05T09:33:56.661Z,19.23
2023-05-05T09:44:54.377Z,19.92
2023-05-05T09:55:49.345Z,20.21
2023-05-05T10:06:22.804Z,20.70
2023-05-05T10:17:10.058Z,20.99
2023-05-05T10:27:53.549Z,21.77
2023-05-05T10:38:44.419Z,21.87
2023-05-05T10:49:31.012Z,22.85
2023-05-05T11:00:29.191Z,23.83
2023-05-05T11:11:17.407Z,24.71
2023-05-05T11:22:13.451Z,25.00
2023-05-05T11:33:02.237Z,27.35
2023-05-05T11:44:04.775Z,28.81
2023-05-05T11:55:05.654Z,29.01
2023-05-05T12:06:05.635Z,30.48
2023-05-05T12:17:06.178Z,31.06
2023-05-05T12:28:04.675Z,30.87
2023-05-05T12:39:04.776Z,32.24
2023-05-05T12:50:05.120Z,32.92
2023-05-05T13:01:06.170Z,34.09
2023-05-05T13:12:06.204Z,34.58
2023-05-05T13:23:02.961Z,33.02
2023-05-05T13:34:02.348Z,33.80
2023-05-05T13:45:03.570Z,34.19
2023-05-05T13:55:39.066Z,33.41
2023-05-05T14:06:39.469Z,33.12
2023-05-05T14:17:36.615Z,34.00
2023-05-05T14:28:33.601Z,34.98
2023-05-05T14:39:06.411Z,34.88
2023-05-05T14:49:54.252Z,34.19
2023-05-05T15:00:43.795Z,33.90
2023-05-05T15:11:27.054Z,34.49
2023-05-05T15:22:09.522Z,30.38
2023-05-05T15:32:51.039Z,30.08
2023-05-05T15:43:33.399Z,29.50
2023-05-05T15:54:15.903Z,27.05
2023-05-05T16:05:02.836Z,23.83
2023-05-05T16:15:51.589Z,23.34
2023-05-05T16:26:45.752Z,22.65
2023-05-05T16:37:38.128Z,22.16
2023-05-05T16:48:28.570Z,22.07
2023-05-05T16:59:20.239Z,21.68
2023-05-05T17:10:10.585Z,21.09
2023-05-05T17:21:04.399Z,20.99
2023-05-05T17:31:54.505Z,20.31
2023-05-05T17:42:47.027Z,19.92
2023-05-05T17:53:21.001Z,19.33
2023-05-05T18:04:07.595Z,18.55
2023-05-05T18:14:58.998Z,17.86
2023-05-05T18:25:57.318Z,17.27
2023-05-05T18:36:56.703Z,16.79
2023-05-05T18:47:55.492Z,16.30
2023-05-05T18:58:45.050Z,15.81
2023-05-05T19:09:19.042Z,15.51
2023-05-05T19:20:14.845Z,15.02
2023-05-05T19:31:06.125Z,14.73
2023-05-05T19:41:51.522Z,14.54
2023-05-05T19:52:51.594Z,14.34
2023-05-05T20:03:48.525Z,14.24
2023-05-05T20:14:36.990Z,14.05
2023-05-05T20:25:30.619Z,13.85
2023-05-05T20:36:24.890Z,13.46
2023-05-05T20:47:23.510Z,13.17
2023-05-05T20:58:18.123Z,12.97
2023-05-05T21:09:17.264Z,12.87
2023-05-05T21:20:04.494Z,12.68
2023-05-05T21:31:04.975Z,12.48
2023-05-05T21:41:45.736Z,12.48
2023-05-05T21:52:44.383Z,12.19
2023-05-05T22:03:42.023Z,12.09
2023-05-05T22:14:36.178Z,12.09
2023-05-05T22:25:35.187Z,11.89
2023-05-05T22:36:24.715Z,11.70
2023-05-05T22:47:00.331Z,11.50
2023-05-05T22:57:55.482Z,11.41
2023-05-05T23:08:41.655Z,11.21
2023-05-05T23:19:36.068Z,11.01
2023-05-05T23:30:30.577Z,10.92
2023-05-05T23:41:22.751Z,10.82
2023-05-05T23:52:21.104Z,10.82
